Aérodrome :
LOGIN :

S'inscrire | Disclaimer

   EN    FR    IT 

 










Légende :    VFR   VFR Marginal   IFR   IFR Intensif   IFR Très Intensif
Visi : 
Plafond : 
>= 8 km
>= 3000ft
5 à 8 km
1000 à 3000 ft
1500m à 5 km
500 à 1000 ft
800 à 1500m
200 à 500 ft
< 800m
< 200 ft
Symboles :   Orages  Brouillard  Fortes neiges  Fortes précipitations  Vent > 20 kt
SIGMETs :   Divers  Orages  Givrage  Turbulence  Onde Orograph.  Cendres Volcan.






- Altitude de l'aérodrome : 1411 ft
- Code IATA : SZG


LOWS - Salzburg

DERNIER METAR :
  • 231450Z VRB02KT 9999 FEW060 SCT075 BKN150 11/07 Q1017 TEMPO 26015G30KT

METARs EXPIRÉS :
  • 231420Z VRB02KT 9999 FEW060 SCT075 BKN150 10/07 Q1017 TEMPO 26015G30KT
  • 231350Z VRB02KT 9999 FEW060 SCT075 BKN120 10/07 Q1017 TEMPO 26015G30KT
  • 231320Z 17004KT 9999 FEW060 SCT075 BKN120 10/06 Q1017 TEMPO 26015G30KT
  • 231250Z VRB02KT 9999 FEW060 BKN100 10/06 Q1018 BECMG 25010KT
  • 231220Z 14003KT 090V180 9999 FEW060 BKN090 09/06 Q1019 TEMPO 26015G25KT

TAF TAF LOWS
Valide du 23 à 12h jusqu'au 24 à 12h UTC


231115Z 2312/2412 15006KT 9999 SCT050 BKN060 TX14/2316Z TN06/2409Z
BECMG 2312/2314 27012G25KT FEW060 BKN080
TEMPO 2314/2318 28020G35KT
TEMPO 2318/2404 27025G45KT
PROB40
TEMPO 2320/2403 30030G50KT -SHRA SCT030 BKN050
TEMPO 2400/2409 4000 SHRA BKN014
BECMG 2407/2409 15006KT FEW010 BKN025



MET'MAP, la Météo Aéronautique d'un coup d'oeil ! - Copyright ORBIFLY Décembre 2007 - Disclaimer

ORBIFLY MET'MAP TEAM :

Programmation & Développement : Alexandra Zaïnal
Sur une idée originale de : Baudouin d'Aumeries
Assistance à la programmation : Marc-Olivier Méhu
Soutien technique & logistique : Manuel Goepfert

Contact : metmap@orbifly.com




SOURCES & CREDITS :

   NOAA